createdAt,value
2019-01-19T00:00:37.653Z,99.90
2019-01-19T00:03:38.303Z,99.90
2019-01-19T00:06:29.538Z,99.90
2019-01-19T00:09:04.410Z,99.90
2019-01-19T00:11:59.920Z,99.90
2019-01-19T00:14:32.053Z,99.90
2019-01-19T00:17:09.762Z,99.90
2019-01-19T00:19:52.928Z,99.90
2019-01-19T00:22:46.120Z,99.90
2019-01-19T00:25:34.260Z,99.90
2019-01-19T00:28:21.929Z,99.90
2019-01-19T00:31:02.334Z,99.90
2019-01-19T00:33:37.709Z,99.90
2019-01-19T00:36:33.122Z,99.90
2019-01-19T00:39:07.477Z,99.90
2019-01-19T00:41:55.746Z,99.90
2019-01-19T00:44:46.642Z,99.90
2019-01-19T00:47:19.981Z,99.90
2019-01-19T00:49:53.261Z,99.90
2019-01-19T00:52:38.285Z,99.90
2019-01-19T00:55:17.358Z,99.90
2019-01-19T00:58:06.094Z,99.90
2019-01-19T01:00:42.049Z,99.90
2019-01-19T01:03:26.782Z,99.90
2019-01-19T01:06:05.814Z,99.90
2019-01-19T01:08:53.750Z,99.90
2019-01-19T01:11:29.802Z,99.90
2019-01-19T01:14:08.634Z,99.90
2019-01-19T01:16:47.583Z,99.90
2019-01-19T01:19:38.165Z,99.90
2019-01-19T01:22:20.768Z,99.90
2019-01-19T01:25:19.706Z,99.90
2019-01-19T01:27:58.485Z,99.90
2019-01-19T01:30:49.662Z,99.90
2019-01-19T01:33:43.065Z,99.90
2019-01-19T01:36:21.843Z,99.90
2019-01-19T01:39:19.090Z,99.90
2019-01-19T01:41:54.897Z,99.90
2019-01-19T01:44:39.691Z,99.90
2019-01-19T01:47:36.788Z,99.90
2019-01-19T01:50:12.847Z,99.90
2019-01-19T01:53:00.975Z,99.90
2019-01-19T01:55:34.122Z,99.90
2019-01-19T01:58:09.692Z,99.90
2019-01-19T02:00:45.673Z,99.90
2019-01-19T02:03:36.574Z,99.90
2019-01-19T02:06:09.952Z,99.90
2019-01-19T02:08:48.974Z,99.90
2019-01-19T02:11:30.793Z,99.90
2019-01-19T02:14:10.056Z,99.90
2019-01-19T02:16:49.550Z,99.90
2019-01-19T02:19:28.665Z,99.90
2019-01-19T02:22:19.877Z,99.90
2019-01-19T02:25:12.289Z,99.90
2019-01-19T02:28:03.232Z,99.90
2019-01-19T02:30:45.350Z,99.90
2019-01-19T02:33:21.360Z,99.90
2019-01-19T02:36:12.356Z,99.90
2019-01-19T02:38:54.495Z,99.90
2019-01-19T02:41:53.306Z,99.90
2019-01-19T02:44:44.507Z,99.90
2019-01-19T02:47:49.109Z,99.90
2019-01-19T02:50:28.051Z,99.90
2019-01-19T02:53:22.039Z,99.90
2019-01-19T02:56:01.398Z,99.90
2019-01-19T02:58:57.313Z,99.90
2019-01-19T03:01:36.209Z,99.90
2019-01-19T03:04:36.485Z,99.90
2019-01-19T03:07:12.530Z,99.90
2019-01-19T03:09:45.827Z,99.90
2019-01-19T03:12:24.682Z,99.90
2019-01-19T03:15:10.243Z,99.90
2019-01-19T03:17:58.473Z,99.90
2019-01-19T03:20:34.831Z,99.90
2019-01-19T03:23:08.104Z,99.90
2019-01-19T03:25:56.235Z,99.90
2019-01-19T03:28:35.271Z,99.90
2019-01-19T03:31:14.748Z,99.90
2019-01-19T03:34:06.824Z,99.90
2019-01-19T03:36:46.038Z,99.90
2019-01-19T03:39:49.631Z,99.90
2019-01-19T03:42:42.646Z,99.90
2019-01-19T03:45:27.782Z,99.90
2019-01-19T03:48:03.732Z,99.90
2019-01-19T03:50:54.933Z,99.90
2019-01-19T03:53:33.891Z,99.90
2019-01-19T03:56:18.933Z,99.90
2019-01-19T03:58:54.922Z,99.90
2019-01-19T04:01:28.227Z,99.90
2019-01-19T04:04:01.506Z,99.90
2019-01-19T04:06:46.848Z,99.90
2019-01-19T04:09:34.704Z,99.90
2019-01-19T04:12:13.561Z,99.90
2019-01-19T04:15:10.966Z,99.90
2019-01-19T04:18:06.034Z,99.90
2019-01-19T04:20:45.223Z,99.90
2019-01-19T04:23:15.694Z,99.90
2019-01-19T04:25:49.426Z,99.90
2019-01-19T04:28:20.674Z,99.90
2019-01-19T04:30:51.131Z,99.90
2019-01-19T04:33:21.600Z,99.90
2019-01-19T04:35:51.791Z,99.90
2019-01-19T04:38:22.014Z,99.90
2019-01-19T04:40:52.618Z,99.90
2019-01-19T04:43:22.838Z,99.90
2019-01-19T04:45:53.037Z,99.90
2019-01-19T04:48:23.431Z,99.90
2019-01-19T04:50:53.682Z,99.90
2019-01-19T04:53:23.963Z,99.90
2019-01-19T04:55:54.163Z,99.90
2019-01-19T04:58:24.618Z,99.90
2019-01-19T05:00:54.838Z,99.90
2019-01-19T05:03:25.286Z,99.90
2019-01-19T05:05:55.831Z,99.90
2019-01-19T05:08:26.023Z,99.90
2019-01-19T05:10:56.260Z,99.90
2019-01-19T05:13:26.696Z,99.90
2019-01-19T05:15:56.916Z,99.90
2019-01-19T05:18:27.296Z,99.90
2019-01-19T05:20:57.931Z,99.90
2019-01-19T05:23:28.532Z,99.90
2019-01-19T05:25:58.830Z,99.90
2019-01-19T05:28:29.084Z,99.90
2019-01-19T05:30:59.380Z,99.90
2019-01-19T05:33:29.595Z,99.90
2019-01-19T05:36:00.048Z,99.90
2019-01-19T05:38:30.276Z,99.90
2019-01-19T05:41:00.461Z,99.90
2019-01-19T05:43:30.686Z,99.90
2019-01-19T05:46:00.889Z,99.90
2019-01-19T05:48:31.115Z,99.90
2019-01-19T05:51:01.309Z,99.90
2019-01-19T05:53:31.844Z,99.90
2019-01-19T05:56:02.049Z,99.90
2019-01-19T05:58:32.287Z,99.90
2019-01-19T06:01:02.482Z,99.90
2019-01-19T06:03:32.707Z,99.90
2019-01-19T06:06:03.805Z,99.90
2019-01-19T06:08:33.999Z,99.90
2019-01-19T06:11:04.218Z,99.90
2019-01-19T06:13:34.416Z,99.90
2019-01-19T06:16:04.731Z,99.90
2019-01-19T06:18:36.147Z,99.90
2019-01-19T06:21:08.032Z,99.90
2019-01-19T06:23:38.470Z,99.90
2019-01-19T06:26:08.934Z,99.90
2019-01-19T06:28:39.127Z,99.90
2019-01-19T06:31:09.589Z,99.90
2019-01-19T06:33:40.049Z,99.90
2019-01-19T06:36:10.272Z,99.90
2019-01-19T06:38:40.497Z,99.90
2019-01-19T06:41:10.731Z,99.90
2019-01-19T06:43:40.928Z,99.90
2019-01-19T06:46:11.161Z,99.90
2019-01-19T06:48:41.595Z,99.90
2019-01-19T06:51:11.822Z,99.90
2019-01-19T06:53:42.022Z,99.90
2019-01-19T06:56:12.246Z,99.90
2019-01-19T06:58:42.677Z,99.90
2019-01-19T07:01:12.906Z,99.90
2019-01-19T07:03:43.338Z,99.90
2019-01-19T07:06:13.570Z,99.90
2019-01-19T07:08:43.769Z,99.90
2019-01-19T07:11:14.300Z,99.90
2019-01-19T07:13:44.522Z,99.90
2019-01-19T07:16:14.718Z,99.90
2019-01-19T07:18:45.190Z,99.90
2019-01-19T07:21:15.381Z,99.90
2019-01-19T07:23:45.614Z,99.90
2019-01-19T07:26:15.830Z,99.90
2019-01-19T07:28:46.022Z,99.90
2019-01-19T07:31:16.258Z,99.90
2019-01-19T07:33:46.706Z,99.90
2019-01-19T07:36:17.179Z,99.90
2019-01-19T07:38:47.640Z,99.90
2019-01-19T07:41:17.831Z,99.90
2019-01-19T07:43:48.437Z,99.90
2019-01-19T07:46:19.254Z,99.90
2019-01-19T07:48:49.524Z,99.90
2019-01-19T07:51:19.731Z,99.90
2019-01-19T07:53:49.975Z,99.90
2019-01-19T07:56:20.165Z,99.90
2019-01-19T07:58:50.389Z,99.90
2019-01-19T08:01:20.595Z,99.90
2019-01-19T08:03:51.063Z,99.90
2019-01-19T08:06:21.820Z,99.90
2019-01-19T08:08:52.262Z,99.90
2019-01-19T08:11:22.461Z,99.90
2019-01-19T08:13:52.718Z,99.90
2019-01-19T08:16:22.994Z,99.90
2019-01-19T08:18:53.223Z,99.90
2019-01-19T08:21:23.529Z,99.90
2019-01-19T08:23:55.269Z,99.90
2019-01-19T08:26:25.679Z,99.90
2019-01-19T08:28:56.057Z,99.90
2019-01-19T08:31:26.396Z,99.90
2019-01-19T08:33:56.570Z,99.90
2019-01-19T08:36:27.279Z,99.90
2019-01-19T08:38:57.490Z,99.90
2019-01-19T08:41:27.722Z,99.90
2019-01-19T08:43:57.931Z,99.90
2019-01-19T08:46:28.390Z,99.90
2019-01-19T08:48:58.819Z,99.90
2019-01-19T08:51:29.042Z,99.90
2019-01-19T08:53:59.518Z,99.90
2019-01-19T08:56:30.485Z,99.90
2019-01-19T08:59:00.704Z,99.90
2019-01-19T09:01:30.970Z,99.90
2019-01-19T09:04:01.188Z,99.90
2019-01-19T09:06:31.956Z,99.90
2019-01-19T09:09:02.615Z,99.90
2019-01-19T09:11:32.955Z,99.90
2019-01-19T09:14:03.418Z,99.90
2019-01-19T09:16:39.552Z,99.90
2019-01-19T09:19:06.331Z,99.90
2019-01-19T09:21:36.514Z,99.90
2019-01-19T09:24:07.232Z,99.90
2019-01-19T09:26:37.659Z,99.90
2019-01-19T09:29:07.890Z,99.90
2019-01-19T09:31:38.765Z,99.90
2019-01-19T09:34:10.745Z,99.90
2019-01-19T09:36:41.099Z,99.90
2019-01-19T09:39:11.683Z,99.90
2019-01-19T09:41:42.216Z,99.90
2019-01-19T09:44:12.510Z,99.90
2019-01-19T09:46:42.774Z,99.90
2019-01-19T09:49:13.076Z,99.90
2019-01-19T09:51:44.090Z,99.90
2019-01-19T09:54:14.315Z,99.90
2019-01-19T09:56:44.510Z,99.90
2019-01-19T09:59:14.742Z,99.90
2019-01-19T10:01:46.528Z,99.90
2019-01-19T10:04:16.990Z,99.90
2019-01-19T10:06:49.344Z,99.90
2019-01-19T10:09:20.298Z,99.90
2019-01-19T10:11:50.540Z,99.90
2019-01-19T10:14:21.181Z,99.90
2019-01-19T10:16:51.387Z,99.90
2019-01-19T10:19:21.689Z,99.90
2019-01-19T10:21:52.059Z,99.90
2019-01-19T10:24:22.582Z,99.90
2019-01-19T10:26:52.858Z,99.90
2019-01-19T10:29:23.657Z,99.90
2019-01-19T10:31:53.879Z,99.90
2019-01-19T10:34:24.066Z,99.90
2019-01-19T10:36:54.695Z,99.90
2019-01-19T10:39:24.915Z,99.90
2019-01-19T10:41:55.133Z,99.90
2019-01-19T10:44:29.904Z,99.90
2019-01-19T10:47:00.391Z,99.90
2019-01-19T10:49:30.618Z,99.90
2019-01-19T10:52:00.839Z,99.90
2019-01-19T10:54:31.042Z,99.90
2019-01-19T10:57:01.504Z,99.90
2019-01-19T10:59:31.724Z,99.90
2019-01-19T11:02:02.621Z,99.90
2019-01-19T11:04:32.915Z,99.90
2019-01-19T11:07:03.169Z,99.90
2019-01-19T11:09:33.639Z,99.90
2019-01-19T11:12:04.055Z,99.90
2019-01-19T11:14:34.554Z,99.90
2019-01-19T11:17:05.107Z,99.90
2019-01-19T11:19:35.372Z,99.90
2019-01-19T11:22:05.770Z,99.90
2019-01-19T11:24:35.995Z,99.90
2019-01-19T11:27:06.348Z,99.90
2019-01-19T11:29:36.713Z,99.90
2019-01-19T11:32:07.122Z,99.90
2019-01-19T11:34:37.412Z,99.90
2019-01-19T11:37:07.589Z,99.90
2019-01-19T11:39:41.101Z,99.90
2019-01-19T11:42:11.313Z,99.90
2019-01-19T11:44:41.718Z,99.90
2019-01-19T11:47:11.939Z,99.90
2019-01-19T11:49:42.117Z,99.90
2019-01-19T11:52:12.346Z,99.90
2019-01-19T11:54:44.657Z,99.90
2019-01-19T11:57:14.849Z,99.50
2019-01-19T11:59:45.091Z,99.90
2019-01-19T12:02:15.548Z,99.90
2019-01-19T12:04:45.825Z,99.90
2019-01-19T12:07:16.256Z,98.70
2019-01-19T12:09:46.713Z,99.00
2019-01-19T12:12:17.170Z,99.60
2019-01-19T12:14:47.360Z,99.10
2019-01-19T12:17:17.815Z,99.60
2019-01-19T12:19:48.001Z,98.80
2019-01-19T12:22:18.468Z,97.80
2019-01-19T12:24:48.649Z,98.10
2019-01-19T12:27:18.877Z,99.10
2019-01-19T12:29:49.292Z,98.60
2019-01-19T12:32:19.578Z,98.50
2019-01-19T12:34:49.764Z,98.90
2019-01-19T12:37:19.983Z,97.60
2019-01-19T12:39:50.180Z,96.30
2019-01-19T12:42:20.461Z,96.10
2019-01-19T12:44:50.742Z,96.10
2019-01-19T12:47:21.197Z,97.50
2019-01-19T12:49:51.384Z,97.20
2019-01-19T12:52:21.598Z,98.10
2019-01-19T12:54:51.786Z,95.60
2019-01-19T12:57:22.251Z,96.20
2019-01-19T12:59:52.438Z,96.50
2019-01-19T13:02:22.897Z,95.90
2019-01-19T13:04:53.109Z,96.20
2019-01-19T13:07:23.611Z,96.20
2019-01-19T13:09:53.815Z,95.20
2019-01-19T13:12:25.640Z,96.10
2019-01-19T13:14:58.933Z,94.50
2019-01-19T13:17:41.416Z,94.30
2019-01-19T13:20:23.772Z,95.10
2019-01-19T13:23:09.171Z,95.00
2019-01-19T13:25:48.098Z,94.70
2019-01-19T13:28:38.976Z,95.00
2019-01-19T13:31:24.357Z,92.20
2019-01-19T13:34:16.706Z,93.60
2019-01-19T13:37:14.059Z,94.20
2019-01-19T13:39:59.016Z,94.90
2019-01-19T13:42:32.310Z,95.70
2019-01-19T13:45:29.235Z,94.50
2019-01-19T13:48:20.861Z,94.30
2019-01-19T13:51:10.204Z,94.40
2019-01-19T13:53:59.549Z,94.60
2019-01-19T13:56:54.679Z,95.40
2019-01-19T13:59:45.960Z,93.90
2019-01-19T14:02:42.975Z,95.40
2019-01-19T14:05:18.901Z,93.50
2019-01-19T14:08:07.111Z,94.30
2019-01-19T14:10:52.095Z,94.80
2019-01-19T14:13:39.999Z,95.50
2019-01-19T14:16:20.435Z,95.30
2019-01-19T14:18:59.703Z,95.40
2019-01-19T14:21:56.660Z,92.50
2019-01-19T14:24:41.725Z,94.70
2019-01-19T14:27:23.748Z,95.10
2019-01-19T14:29:57.036Z,95.60
2019-01-19T14:32:38.930Z,93.80
2019-01-19T14:35:24.230Z,94.40
2019-01-19T14:38:12.393Z,95.50
2019-01-19T14:40:54.401Z,96.00
2019-01-19T14:43:36.761Z,96.10
2019-01-19T14:46:28.282Z,95.80
2019-01-19T14:49:33.171Z,96.10
2019-01-19T14:52:06.426Z,96.20
2019-01-19T14:54:54.846Z,95.80
2019-01-19T14:57:28.140Z,96.20
2019-01-19T15:00:17.959Z,96.30
2019-01-19T15:03:20.985Z,96.60
2019-01-19T15:06:03.220Z,97.50
2019-01-19T15:09:03.874Z,97.30
2019-01-19T15:11:58.491Z,97.00
2019-01-19T15:14:43.567Z,97.10
2019-01-19T15:17:19.782Z,97.30
2019-01-19T15:20:12.290Z,97.50
2019-01-19T15:23:04.620Z,97.30
2019-01-19T15:25:52.907Z,97.10
2019-01-19T15:28:32.149Z,97.40
2019-01-19T15:31:11.658Z,96.80
2019-01-19T15:33:47.773Z,96.80
2019-01-19T15:36:37.459Z,97.10
2019-01-19T15:39:13.691Z,96.90
2019-01-19T15:42:10.975Z,97.20
2019-01-19T15:44:49.379Z,97.60
2019-01-19T15:47:43.660Z,97.90
2019-01-19T15:50:28.667Z,98.20
2019-01-19T15:53:04.478Z,98.30
2019-01-19T15:55:43.480Z,98.50
2019-01-19T15:58:22.382Z,98.70
2019-01-19T16:01:19.393Z,98.90
2019-01-19T16:03:58.173Z,99.10
2019-01-19T16:06:44.246Z,99.30
2019-01-19T16:09:35.386Z,99.40
2019-01-19T16:12:20.572Z,99.70
2019-01-19T16:14:53.857Z,99.60
2019-01-19T16:17:27.149Z,99.70
2019-01-19T16:20:16.613Z,99.80
2019-01-19T16:23:01.783Z,99.90
2019-01-19T16:25:55.802Z,99.90
2019-01-19T16:28:37.695Z,99.90
2019-01-19T16:31:27.758Z,99.90
2019-01-19T16:34:21.765Z,99.90
2019-01-19T16:37:12.825Z,99.90
2019-01-19T16:39:57.842Z,99.90
2019-01-19T16:42:39.836Z,99.90
2019-01-19T16:45:28.681Z,99.90
2019-01-19T16:48:07.526Z,99.90
2019-01-19T16:50:55.363Z,99.90
2019-01-19T16:53:33.732Z,99.90
2019-01-19T16:56:16.093Z,99.90
2019-01-19T16:59:07.354Z,99.90
2019-01-19T17:01:43.550Z,99.90
2019-01-19T17:04:24.600Z,99.90
2019-01-19T17:07:06.209Z,99.90
2019-01-19T17:09:51.213Z,99.90
2019-01-19T17:12:48.358Z,99.90
2019-01-19T17:15:27.914Z,99.90
2019-01-19T17:18:10.425Z,99.90
2019-01-19T17:20:43.706Z,99.90
2019-01-19T17:23:46.942Z,99.90
2019-01-19T17:26:28.858Z,99.90
2019-01-19T17:29:02.350Z,99.90
2019-01-19T17:31:41.414Z,99.90
2019-01-19T17:34:20.217Z,99.90
2019-01-19T17:36:59.325Z,99.90
2019-01-19T17:39:49.211Z,99.90
2019-01-19T17:42:28.415Z,99.90
2019-01-19T17:45:04.354Z,99.90
2019-01-19T17:47:37.642Z,99.90
2019-01-19T17:50:25.529Z,99.90
2019-01-19T17:53:15.187Z,99.90
2019-01-19T17:56:20.922Z,99.90
2019-01-19T17:58:56.881Z,99.90
2019-01-19T18:01:46.426Z,99.90
2019-01-19T18:04:28.719Z,99.90
2019-01-19T18:07:07.999Z,99.90
2019-01-19T18:09:47.503Z,99.90
2019-01-19T18:12:21.073Z,99.90
2019-01-19T18:15:19.650Z,99.90
2019-01-19T18:17:56.084Z,99.90
2019-01-19T18:20:29.375Z,99.90
2019-01-19T18:23:14.276Z,99.90
2019-01-19T18:25:59.647Z,99.90
2019-01-19T18:28:36.205Z,99.90
2019-01-19T18:31:41.074Z,99.90
2019-01-19T18:34:32.315Z,99.90
2019-01-19T18:37:17.302Z,99.90
2019-01-19T18:39:54.796Z,99.90
2019-01-19T18:42:44.895Z,99.90
2019-01-19T18:45:20.978Z,99.90
2019-01-19T18:48:16.574Z,99.90
2019-01-19T18:51:10.883Z,99.90
2019-01-19T18:53:46.750Z,99.90
2019-01-19T18:56:25.700Z,99.90
2019-01-19T18:59:16.657Z,99.90
2019-01-19T19:01:52.654Z,99.90
2019-01-19T19:04:45.273Z,99.90
2019-01-19T19:07:39.758Z,99.90
2019-01-19T19:10:33.888Z,99.90
2019-01-19T19:13:18.593Z,99.90
2019-01-19T19:15:59.112Z,99.90
2019-01-19T19:18:50.648Z,99.90
2019-01-19T19:21:36.589Z,99.90
2019-01-19T19:24:29.317Z,99.90
2019-01-19T19:27:08.434Z,99.90
2019-01-19T19:30:05.532Z,99.90
2019-01-19T19:32:58.183Z,99.90
2019-01-19T19:35:47.769Z,99.90
2019-01-19T19:38:36.203Z,99.90
2019-01-19T19:41:23.936Z,99.90
2019-01-19T19:44:20.531Z,99.90
2019-01-19T19:47:17.170Z,99.90
2019-01-19T19:50:09.630Z,99.90
2019-01-19T19:52:39.889Z,99.90
2019-01-19T19:55:09.105Z,99.90
2019-01-19T19:57:39.296Z,99.90
2019-01-19T20:00:12.498Z,99.90
2019-01-19T20:02:42.706Z,99.90
2019-01-19T20:05:13.386Z,99.90
2019-01-19T20:07:43.883Z,99.90
2019-01-19T20:10:17.231Z,99.90
2019-01-19T20:12:46.131Z,99.90
2019-01-19T20:15:16.494Z,99.90
2019-01-19T20:17:46.722Z,99.90
2019-01-19T20:20:17.149Z,99.90
2019-01-19T20:22:47.373Z,99.90
2019-01-19T20:25:17.962Z,99.90
2019-01-19T20:27:48.212Z,99.90
2019-01-19T20:30:18.541Z,99.90
2019-01-19T20:32:48.759Z,99.90
2019-01-19T20:35:20.634Z,99.90
2019-01-19T20:37:50.850Z,99.90
2019-01-19T20:40:24.736Z,99.90
2019-01-19T20:42:55.137Z,99.90
2019-01-19T20:45:26.903Z,99.90
2019-01-19T20:47:57.258Z,99.90
2019-01-19T20:50:27.683Z,99.90
2019-01-19T20:52:57.945Z,99.90
2019-01-19T20:55:28.137Z,99.90
2019-01-19T20:57:58.435Z,99.90
2019-01-19T21:00:28.689Z,99.90
2019-01-19T21:02:58.913Z,99.90
2019-01-19T21:05:29.117Z,99.90
2019-01-19T21:07:59.337Z,99.90
2019-01-19T21:10:32.018Z,99.90
2019-01-19T21:13:01.478Z,99.90
2019-01-19T21:15:31.902Z,99.90
2019-01-19T21:18:02.371Z,99.90
2019-01-19T21:20:34.377Z,99.90
2019-01-19T21:23:05.051Z,99.90
2019-01-19T21:25:35.340Z,99.90
2019-01-19T21:28:05.555Z,99.90
2019-01-19T21:30:35.879Z,99.90
2019-01-19T21:33:06.178Z,99.90
2019-01-19T21:35:36.687Z,99.90
2019-01-19T21:38:07.116Z,99.90
2019-01-19T21:40:39.100Z,99.90
2019-01-19T21:43:09.485Z,99.90
2019-01-19T21:45:39.679Z,99.90
2019-01-19T21:48:09.915Z,99.90
2019-01-19T21:50:40.379Z,99.90
2019-01-19T21:53:10.564Z,99.90
2019-01-19T21:55:40.861Z,99.90
2019-01-19T21:58:11.127Z,99.90
2019-01-19T22:00:41.411Z,99.90
2019-01-19T22:03:11.644Z,99.90
2019-01-19T22:05:41.852Z,99.90
2019-01-19T22:08:12.439Z,99.90
2019-01-19T22:10:46.468Z,99.90
2019-01-19T22:13:14.795Z,99.90
2019-01-19T22:15:45.163Z,99.90
2019-01-19T22:18:15.358Z,99.90
2019-01-19T22:20:45.598Z,99.90
2019-01-19T22:23:15.809Z,99.90
2019-01-19T22:25:46.349Z,99.90
2019-01-19T22:28:16.778Z,99.90
2019-01-19T22:30:47.030Z,99.90
2019-01-19T22:33:17.722Z,99.90
2019-01-19T22:35:48.032Z,99.90
2019-01-19T22:38:18.222Z,99.90
2019-01-19T22:40:53.546Z,99.90
2019-01-19T22:43:23.088Z,99.90
2019-01-19T22:45:53.298Z,99.90
2019-01-19T22:48:23.543Z,99.90
2019-01-19T22:50:53.948Z,99.90
2019-01-19T22:53:24.407Z,99.90
2019-01-19T22:55:54.609Z,99.90
2019-01-19T22:58:24.873Z,99.90
2019-01-19T23:01:02.842Z,99.90
2019-01-19T23:03:34.211Z,99.90
2019-01-19T23:06:05.017Z,99.90
2019-01-19T23:08:35.306Z,99.90
2019-01-19T23:11:06.160Z,99.90
2019-01-19T23:13:36.362Z,99.90
2019-01-19T23:16:06.627Z,99.90
2019-01-19T23:18:37.073Z,99.90
2019-01-19T23:21:07.351Z,99.90
2019-01-19T23:23:37.579Z,99.90
2019-01-19T23:26:08.002Z,99.90
2019-01-19T23:28:39.300Z,99.90
2019-01-19T23:31:09.226Z,99.90
2019-01-19T23:33:41.119Z,99.90
2019-01-19T23:36:11.353Z,99.90
2019-01-19T23:38:41.565Z,99.90
2019-01-19T23:41:12.122Z,99.90
2019-01-19T23:43:42.315Z,99.90
2019-01-19T23:46:12.598Z,99.90
2019-01-19T23:48:42.815Z,99.90
2019-01-19T23:51:13.041Z,99.90
2019-01-19T23:53:43.443Z,99.90
2019-01-19T23:56:13.674Z,99.90
2019-01-19T23:58:43.870Z,99.90
